createdAt,value
2018-07-05T00:00:03.247Z,18.7
2018-07-05T00:05:02.438Z,18.6
2018-07-05T00:10:03.163Z,18.2
2018-07-05T00:15:02.576Z,18.2
2018-07-05T00:20:02.968Z,18.2
2018-07-05T00:25:02.372Z,18.1
2018-07-05T00:30:02.994Z,18.1
2018-07-05T00:35:02.484Z,18.1
2018-07-05T00:40:02.929Z,18.1
2018-07-05T00:45:02.352Z,17.8
2018-07-05T00:50:02.951Z,17.8
2018-07-05T00:55:02.438Z,17.8
2018-07-05T01:00:02.902Z,17.8
2018-07-05T01:05:02.379Z,17.7
2018-07-05T01:10:02.961Z,17.5
2018-07-05T01:15:02.454Z,17.5
2018-07-05T01:20:02.940Z,17.3
2018-07-05T01:25:02.417Z,17.2
2018-07-05T01:30:02.892Z,17.2
2018-07-05T01:35:02.308Z,17.1
2018-07-05T01:40:02.934Z,17.1
2018-07-05T01:45:02.368Z,17.1
2018-07-05T01:50:02.882Z,17.0
2018-07-05T01:55:02.258Z,16.7
2018-07-05T02:00:02.745Z,16.7
2018-07-05T02:05:03.337Z,16.7
2018-07-05T02:10:03.153Z,16.7
2018-07-05T02:15:02.637Z,16.7
2018-07-05T02:20:03.136Z,16.6
2018-07-05T02:25:02.602Z,16.6
2018-07-05T02:30:03.063Z,16.6
2018-07-05T02:35:02.569Z,16.2
2018-07-05T02:40:03.063Z,16.2
2018-07-05T02:45:02.576Z,16.0
2018-07-05T02:50:02.997Z,16.0
2018-07-05T02:55:02.422Z,16.0
2018-07-05T03:00:03.094Z,16.0
2018-07-05T03:05:02.520Z,15.8
2018-07-05T03:10:03.004Z,15.8
2018-07-05T03:15:02.496Z,15.8
2018-07-05T03:20:03.004Z,15.6
2018-07-05T03:25:02.484Z,15.6
2018-07-05T03:30:03.004Z,15.6
2018-07-05T03:35:02.475Z,15.6
2018-07-05T03:40:03.037Z,15.5
2018-07-05T03:45:02.485Z,15.6
2018-07-05T03:50:02.947Z,15.6
2018-07-05T03:55:02.374Z,15.8
2018-07-05T04:00:02.805Z,15.8
2018-07-05T04:05:02.297Z,15.8
2018-07-05T04:10:02.828Z,16.0
2018-07-05T04:15:03.267Z,16.0
2018-07-05T04:20:02.699Z,16.0
2018-07-05T04:25:03.199Z,16.0
2018-07-05T04:30:02.593Z,16.0
2018-07-05T04:35:03.021Z,16.2
2018-07-05T04:40:02.521Z,16.2
2018-07-05T04:45:03.039Z,16.2
2018-07-05T04:50:02.556Z,16.0
2018-07-05T04:55:03.068Z,16.0
2018-07-05T05:00:02.427Z,16.2
2018-07-05T05:05:02.964Z,16.0
2018-07-05T05:10:02.468Z,16.2
2018-07-05T05:15:02.942Z,16.3
2018-07-05T05:20:02.929Z,16.3
2018-07-05T05:25:02.397Z,16.3
2018-07-05T05:30:03.024Z,16.6
2018-07-05T05:35:02.868Z,17.0
2018-07-05T05:40:02.367Z,17.0
2018-07-05T05:45:02.734Z,17.2
2018-07-05T05:50:03.175Z,17.2
2018-07-05T05:55:02.621Z,17.2
2018-07-05T06:00:03.241Z,17.7
2018-07-05T06:05:02.683Z,17.7
2018-07-05T06:10:03.169Z,17.7
2018-07-05T06:15:02.624Z,18.1
2018-07-05T06:20:03.089Z,18.2
2018-07-05T06:25:02.492Z,18.6
2018-07-05T06:30:02.927Z,18.5
2018-07-05T06:35:02.420Z,18.2
2018-07-05T06:40:02.927Z,18.6
2018-07-05T06:45:02.336Z,18.8
2018-07-05T06:50:02.822Z,18.8
2018-07-05T06:55:03.272Z,19.1
2018-07-05T07:00:02.692Z,19.7
2018-07-05T07:05:03.113Z,20.0
2018-07-05T07:10:02.601Z,20.0
2018-07-05T07:15:03.011Z,20.6
2018-07-05T07:20:02.440Z,20.7
2018-07-05T07:25:02.922Z,20.7
2018-07-05T07:30:02.400Z,21.0
2018-07-05T07:35:03.065Z,21.2
2018-07-05T07:40:02.607Z,21.5
2018-07-05T07:45:03.030Z,21.7
2018-07-05T07:50:02.551Z,22.2
2018-07-05T07:55:03.003Z,22.2
2018-07-05T08:00:02.640Z,22.3
2018-07-05T08:05:02.278Z,22.5
2018-07-05T08:10:02.773Z,22.7
2018-07-05T08:15:03.259Z,23.8
2018-07-05T08:20:02.998Z,23.7
2018-07-05T08:25:02.413Z,24.6
2018-07-05T08:30:02.866Z,24.8
2018-07-05T08:35:02.328Z,26.0
2018-07-05T08:40:02.847Z,25.8
2018-07-05T08:45:02.372Z,26.5
2018-07-05T08:50:02.832Z,26.5
2018-07-05T08:55:02.487Z,27.5
2018-07-05T09:00:02.935Z,26.0
2018-07-05T09:05:02.346Z,26.2
2018-07-05T09:10:02.874Z,28.0
2018-07-05T09:15:02.330Z,27.1
2018-07-05T09:20:02.814Z,27.1
2018-07-05T09:25:02.319Z,27.8
2018-07-05T09:30:02.796Z,27.7
2018-07-05T09:35:03.219Z,27.3
2018-07-05T09:40:02.709Z,28.0
2018-07-05T09:45:03.150Z,28.3
2018-07-05T09:50:02.530Z,28.6
2018-07-05T09:55:03.069Z,26.8
2018-07-05T10:05:03.123Z,26.1
2018-07-05T10:10:02.541Z,26.7
2018-07-05T10:15:03.050Z,26.5
2018-07-05T10:20:02.482Z,28.6
2018-07-05T10:25:02.905Z,29.0
2018-07-05T10:30:02.270Z,28.3
2018-07-05T10:35:03.138Z,29.1
2018-07-05T10:40:02.660Z,28.2
2018-07-05T10:45:03.110Z,29.2
2018-07-05T10:50:02.529Z,29.2
2018-07-05T10:55:03.016Z,30.5
2018-07-05T11:00:02.491Z,28.8
2018-07-05T11:05:03.069Z,29.6
2018-07-05T11:10:02.603Z,30.0
2018-07-05T11:15:03.099Z,30.5
2018-07-05T11:20:02.537Z,30.2
2018-07-05T11:25:03.015Z,30.6
2018-07-05T11:30:02.453Z,29.5
2018-07-05T11:35:02.957Z,30.2
2018-07-05T11:40:02.451Z,28.8
2018-07-05T11:45:02.940Z,31.0
2018-07-05T11:50:02.388Z,30.7
2018-07-05T11:55:02.892Z,28.8
2018-07-05T12:00:02.303Z,30.1
2018-07-05T12:05:02.838Z,30.2
2018-07-05T12:10:02.340Z,30.6
2018-07-05T12:20:02.470Z,30.5
2018-07-05T12:25:02.858Z,30.8
2018-07-05T12:30:02.353Z,31.2
2018-07-05T12:35:03.007Z,31.2
2018-07-05T12:40:02.470Z,31.7
2018-07-05T12:45:03.029Z,30.1
2018-07-05T12:50:02.438Z,31.7
2018-07-05T12:55:02.936Z,31.3
2018-07-05T13:00:02.425Z,30.8
2018-07-05T13:05:02.855Z,31.2
2018-07-05T13:10:02.376Z,28.8
2018-07-05T13:15:02.810Z,30.2
2018-07-05T13:20:02.294Z,30.2
2018-07-05T13:25:02.782Z,30.3
2018-07-05T13:30:03.158Z,31.8
2018-07-05T13:35:02.603Z,32.5
2018-07-05T13:40:03.088Z,31.2
2018-07-05T13:45:02.572Z,31.2
2018-07-05T13:50:03.054Z,31.8
2018-07-05T13:55:02.444Z,32.7
2018-07-05T14:00:03.073Z,32.5
2018-07-05T14:05:02.569Z,31.6
2018-07-05T14:10:03.157Z,31.6
2018-07-05T14:15:02.555Z,30.5
2018-07-05T14:20:03.067Z,31.8
2018-07-05T14:25:02.622Z,31.7
2018-07-05T14:30:02.509Z,30.5
2018-07-05T14:35:03.001Z,29.6
2018-07-05T14:40:02.471Z,30.3
2018-07-05T14:45:02.825Z,29.1
2018-07-05T14:50:03.250Z,29.2
2018-07-05T14:55:02.676Z,32.7
2018-07-05T15:00:03.022Z,30.6
2018-07-05T15:05:02.449Z,29.0
2018-07-05T15:10:02.924Z,29.0
2018-07-05T15:15:02.415Z,29.7
2018-07-05T15:20:02.874Z,30.2
2018-07-05T15:25:03.246Z,31.6
2018-07-05T15:30:02.608Z,30.8
2018-07-05T15:35:03.016Z,31.7
2018-07-05T15:40:02.509Z,30.8
2018-07-05T15:45:02.951Z,30.2
2018-07-05T15:50:02.383Z,30.3
2018-07-05T15:55:02.834Z,30.8
2018-07-05T16:00:02.350Z,31.2
2018-07-05T16:05:02.884Z,28.8
2018-07-05T16:10:02.485Z,30.1
2018-07-05T16:15:03.131Z,27.8
2018-07-05T16:20:02.725Z,27.1
2018-07-05T16:25:03.168Z,26.7
2018-07-05T16:30:02.617Z,28.8
2018-07-05T16:35:03.130Z,29.0
2018-07-05T16:40:02.668Z,29.7
2018-07-05T16:45:03.099Z,29.0
2018-07-05T16:50:02.573Z,29.2
2018-07-05T16:55:03.044Z,29.1
2018-07-05T17:00:02.487Z,29.1
2018-07-05T17:05:03.011Z,28.5
2018-07-05T17:10:02.436Z,28.8
2018-07-05T17:15:02.856Z,28.6
2018-07-05T17:20:02.390Z,28.7
2018-07-05T17:25:02.892Z,27.8
2018-07-05T17:30:02.342Z,28.1
2018-07-05T17:35:02.799Z,28.2
2018-07-05T17:40:03.223Z,27.8
2018-07-05T17:45:02.603Z,27.7
2018-07-05T17:50:03.016Z,27.2
2018-07-05T17:55:02.467Z,27.3
2018-07-05T18:00:02.979Z,27.8
2018-07-05T18:05:02.440Z,27.2
2018-07-05T18:10:02.973Z,27.2
2018-07-05T18:15:02.401Z,27.1
2018-07-05T18:20:02.906Z,26.2
2018-07-05T18:25:02.371Z,25.8
2018-07-05T18:30:02.802Z,25.7
2018-07-05T18:35:03.235Z,24.7
2018-07-05T18:40:02.726Z,24.2
2018-07-05T18:45:03.215Z,23.7
2018-07-05T18:50:02.714Z,23.6
2018-07-05T18:55:03.235Z,23.0
2018-07-05T19:00:02.678Z,22.6
2018-07-05T19:05:03.119Z,22.3
2018-07-05T19:10:02.649Z,22.0
2018-07-05T19:15:03.123Z,21.8
2018-07-05T19:20:02.503Z,21.5
2018-07-05T19:25:02.950Z,21.3
2018-07-05T19:30:02.545Z,21.2
2018-07-05T19:35:02.998Z,21.0
2018-07-05T19:40:02.546Z,20.8
2018-07-05T19:45:02.992Z,20.7
2018-07-05T19:50:02.468Z,20.6
2018-07-05T19:55:02.912Z,20.2
2018-07-05T20:00:03.248Z,20.2
2018-07-05T20:05:02.639Z,20.0
2018-07-05T20:10:03.127Z,19.7
2018-07-05T20:15:02.630Z,19.7
2018-07-05T20:20:02.541Z,19.5
2018-07-05T20:25:02.970Z,19.2
2018-07-05T20:30:02.632Z,19.1
2018-07-05T20:35:02.489Z,19.1
2018-07-05T20:40:03.003Z,19.0
2018-07-05T20:50:02.955Z,18.8
2018-07-05T20:55:02.365Z,18.7
2018-07-05T21:00:02.867Z,18.6
2018-07-05T21:05:02.319Z,18.5
2018-07-05T21:10:02.863Z,18.2
2018-07-05T21:15:02.276Z,18.2
2018-07-05T21:20:02.755Z,18.1
2018-07-05T21:25:03.311Z,18.1
2018-07-05T21:30:02.717Z,18.1
2018-07-05T21:35:03.135Z,18.1
2018-07-05T21:40:02.570Z,17.8
2018-07-05T21:45:02.928Z,17.7
2018-07-05T21:50:02.341Z,17.7
2018-07-05T21:55:02.841Z,17.7
2018-07-05T22:00:03.266Z,17.5
2018-07-05T22:10:02.515Z,17.5
2018-07-05T22:15:02.930Z,17.3
2018-07-05T22:20:02.466Z,17.2
2018-07-05T22:25:02.936Z,17.1
2018-07-05T22:30:02.362Z,17.1
2018-07-05T22:35:02.800Z,17.0
2018-07-05T22:40:03.313Z,17.0
2018-07-05T22:45:02.772Z,17.0
2018-07-05T22:50:03.196Z,16.7
2018-07-05T22:55:02.618Z,16.7
2018-07-05T23:00:03.054Z,16.7
2018-07-05T23:05:03.024Z,16.7
2018-07-05T23:10:02.511Z,16.6
2018-07-05T23:15:02.917Z,16.6
2018-07-05T23:20:02.340Z,16.3
2018-07-05T23:25:02.762Z,16.3
2018-07-05T23:30:03.215Z,16.3
2018-07-05T23:35:02.630Z,16.3
2018-07-05T23:40:03.037Z,16.3
2018-07-05T23:45:02.447Z,16.2
2018-07-05T23:50:02.950Z,16.2
2018-07-05T23:55:02.424Z,16.0
